Track Коломнин Леонид

Time Latitude Longitude Accuracy (66% radius in meters) Altitude (meters) Speed (km/hour) Bearing (degrees) Battery (%) GPS flag
10:08:27 55.737895 37.299011 5 183 0 327.5 71 1 delete
10:08:14 55.737891 37.299007 5 167 0 327.5 71 1 delete
10:08:03 55.737890 37.299014 5 171 0 344.54870605469 71 1 delete
10:07:51 55.737890 37.299014 5 172 0 344.54870605469 71 1 delete
10:07:39 55.737890 37.299014 5 168 0 344.54870605469 71 1 delete
10:07:28 55.737890 37.299014 5 171 0 344.54870605469 71 1 delete
10:07:16 55.737890 37.299014 5 175 0 344.54870605469 71 1 delete
10:07:04 55.737890 37.299014 5 174 0 344.54870605469 71 1 delete
10:06:52 55.737890 37.299014 5 175 0 344.54870605469 71 1 delete
10:06:41 55.737890 37.299014 5 175 0 344.54870605469 71 1 delete
10:06:29 55.737890 37.299014 5 176 0 344.54870605469 71 1 delete
10:06:17 55.737890 37.299014 10 176 0 344.54870605469 71 1 delete
10:06:06 55.737890 37.299014 5 176 0 344.54870605469 71 1 delete
10:05:54 55.737890 37.299014 5 177 0 344.54870605469 71 1 delete
10:05:42 55.737890 37.299014 5 176 0 344.54870605469 71 1 delete
10:05:30 55.737890 37.299014 5 176 0 344.54870605469 71 1 delete
10:05:19 55.737890 37.299014 5 176 0 344.54870605469 71 1 delete
10:05:07 55.737890 37.299014 5 176 0 344.54870605469 71 1 delete
10:04:55 55.737890 37.299014 5 176 0 344.54870605469 71 1 delete
10:04:44 55.737890 37.299014 5 173 0 344.54870605469 71 1 delete
10:04:32 55.737891 37.299012 5 174 0 344.54870605469 71 1 delete
10:04:20 55.737891 37.299012 5 173 0 344.54870605469 71 1 delete
10:04:08 55.737891 37.299012 5 172 0 344.54870605469 71 1 delete
10:03:57 55.737891 37.299012 5 170 0 344.54870605469 71 1 delete
10:03:45 55.737891 37.299012 5 168 0 344.54870605469 71 1 delete
10:03:33 55.737891 37.299012 5 175 0 344.54870605469 71 1 delete
10:03:21 55.737891 37.299012 5 176 0 344.54870605469 71 1 delete
10:03:10 55.737891 37.299012 5 175 0 344.54870605469 71 1 delete
10:02:58 55.737891 37.299012 5 175 0 344.54870605469 71 1 delete
10:02:46 55.737891 37.299012 10 174 0 344.54870605469 71 1 delete
10:02:35 55.737891 37.299012 5 175 0 344.54870605469 71 1 delete
10:02:23 55.737891 37.299012 5 175 0 344.54870605469 71 1 delete
10:02:11 55.737891 37.299012 5 176 0 344.54870605469 71 1 delete
10:01:59 55.737891 37.299012 5 176 0 344.54870605469 71 1 delete
10:01:48 55.737891 37.299012 5 177 0 344.54870605469 71 1 delete
10:01:36 55.737891 37.299012 5 177 0 344.54870605469 71 1 delete
10:01:24 55.737891 37.299012 5 178 0 344.54870605469 71 1 delete
10:01:12 55.737891 37.299012 5 175 0 344.54870605469 71 1 delete
10:01:01 55.737891 37.299012 5 177 0 344.54870605469 71 1 delete
10:00:49 55.737891 37.299012 5 177 0 344.54870605469 71 1 delete
10:00:37 55.737891 37.299012 5 177 0 344.54870605469 71 1 delete
10:00:24 55.737891 37.299012 5 178 0 344.54870605469 71 1 delete
10:00:12 55.737891 37.299012 5 176 0 344.54870605469 71 1 delete
10:00:00 55.737891 37.299012 5 177 0 344.54870605469 71 1 delete
09:59:48 55.737891 37.299012 5 177 0 344.54870605469 71 1 delete
09:59:37 55.737891 37.299012 5 177 0 344.54870605469 71 1 delete
09:59:25 55.737891 37.299012 5 177 0 344.54870605469 71 1 delete
09:59:13 55.737891 37.299012 5 175 0 344.54870605469 71 1 delete
09:59:02 55.737891 37.299012 5 175 0 344.54870605469 71 1 delete
09:58:50 55.737891 37.299012 5 174 0 344.54870605469 71 1 delete